sensor_id;sensor_type;location;lat;lon;timestamp;temperature;humidity
24802;DHT22;12898;50.520;12.152;2023-02-01T00:00:02;1.80;99.90
24802;DHT22;12898;50.520;12.152;2023-02-01T00:02:29;1.80;99.90
24802;DHT22;12898;50.520;12.152;2023-02-01T00:04:54;1.80;99.90
24802;DHT22;12898;50.520;12.152;2023-02-01T00:07:20;2.00;99.90
24802;DHT22;12898;50.520;12.152;2023-02-01T00:09:46;2.00;99.90
24802;DHT22;12898;50.520;12.152;2023-02-01T00:12:11;2.00;99.90
24802;DHT22;12898;50.520;12.152;2023-02-01T00:14:37;2.10;99.90
24802;DHT22;12898;50.520;12.152;2023-02-01T00:17:07;2.10;99.90
24802;DHT22;12898;50.520;12.152;2023-02-01T00:19:34;2.10;99.90
24802;DHT22;12898;50.520;12.152;2023-02-01T00:22:00;2.00;99.90
24802;DHT22;12898;50.520;12.152;2023-02-01T00:24:26;2.10;99.90
24802;DHT22;12898;50.520;12.152;2023-02-01T00:26:51;2.10;99.90
24802;DHT22;12898;50.520;12.152;2023-02-01T00:29:19;2.20;99.90
24802;DHT22;12898;50.520;12.152;2023-02-01T00:31:45;2.30;99.90
24802;DHT22;12898;50.520;12.152;2023-02-01T00:34:16;2.40;99.90
24802;DHT22;12898;50.520;12.152;2023-02-01T00:36:43;2.40;99.90
24802;DHT22;12898;50.520;12.152;2023-02-01T00:39:10;2.40;99.90
24802;DHT22;12898;50.520;12.152;2023-02-01T00:41:36;2.40;99.90
24802;DHT22;12898;50.520;12.152;2023-02-01T00:44:01;2.50;99.90
24802;DHT22;12898;50.520;12.152;2023-02-01T00:46:27;2.40;99.90
24802;DHT22;12898;50.520;12.152;2023-02-01T00:48:53;2.40;99.90
24802;DHT22;12898;50.520;12.152;2023-02-01T00:51:22;2.40;99.90
24802;DHT22;12898;50.520;12.152;2023-02-01T00:53:49;2.40;99.90
24802;DHT22;12898;50.520;12.152;2023-02-01T00:56:16;2.50;99.90
24802;DHT22;12898;50.520;12.152;2023-02-01T00:58:42;2.40;99.90
24802;DHT22;12898;50.520;12.152;2023-02-01T01:03:40;2.40;99.90
24802;DHT22;12898;50.520;12.152;2023-02-01T01:06:12;2.40;99.90
24802;DHT22;12898;50.520;12.152;2023-02-01T01:08:40;2.30;99.90
24802;DHT22;12898;50.520;12.152;2023-02-01T01:11:15;2.30;99.90
24802;DHT22;12898;50.520;12.152;2023-02-01T01:13:45;2.30;99.90
24802;DHT22;12898;50.520;12.152;2023-02-01T01:16:11;2.30;99.90
24802;DHT22;12898;50.520;12.152;2023-02-01T01:18:37;2.20;99.90
24802;DHT22;12898;50.520;12.152;2023-02-01T01:21:05;2.20;99.90
24802;DHT22;12898;50.520;12.152;2023-02-01T01:23:31;2.20;99.90
24802;DHT22;12898;50.520;12.152;2023-02-01T01:25:57;2.20;99.90
24802;DHT22;12898;50.520;12.152;2023-02-01T01:28:24;2.10;99.90
24802;DHT22;12898;50.520;12.152;2023-02-01T01:30:50;2.10;99.90
24802;DHT22;12898;50.520;12.152;2023-02-01T01:33:15;2.10;99.90
24802;DHT22;12898;50.520;12.152;2023-02-01T01:35:42;2.10;99.90
24802;DHT22;12898;50.520;12.152;2023-02-01T01:38:10;2.10;99.90
24802;DHT22;12898;50.520;12.152;2023-02-01T01:40:36;2.10;99.90
24802;DHT22;12898;50.520;12.152;2023-02-01T01:43:02;2.10;99.90
24802;DHT22;12898;50.520;12.152;2023-02-01T01:45:31;2.10;99.90
24802;DHT22;12898;50.520;12.152;2023-02-01T01:48:05;2.10;99.90
24802;DHT22;12898;50.520;12.152;2023-02-01T01:53:18;2.10;99.90
24802;DHT22;12898;50.520;12.152;2023-02-01T01:55:47;2.00;99.90
24802;DHT22;12898;50.520;12.152;2023-02-01T01:58:24;2.00;99.90
24802;DHT22;12898;50.520;12.152;2023-02-01T02:00:53;2.00;99.90
24802;DHT22;12898;50.520;12.152;2023-02-01T02:03:30;2.00;99.90
24802;DHT22;12898;50.520;12.152;2023-02-01T02:06:02;1.90;99.90
24802;DHT22;12898;50.520;12.152;2023-02-01T02:08:29;1.90;99.90
24802;DHT22;12898;50.520;12.152;2023-02-01T02:10:55;1.90;99.90
24802;DHT22;12898;50.520;12.152;2023-02-01T02:13:34;1.90;99.90
24802;DHT22;12898;50.520;12.152;2023-02-01T02:28:42;1.90;99.90
24802;DHT22;12898;50.520;12.152;2023-02-01T02:34:39;1.80;99.90
24802;DHT22;12898;50.520;12.152;2023-02-01T02:40:21;1.80;99.90
24802;DHT22;12898;50.520;12.152;2023-02-01T02:46:04;1.70;99.90
24802;DHT22;12898;50.520;12.152;2023-02-01T02:49:34;1.60;99.90
24802;DHT22;12898;50.520;12.152;2023-02-01T02:52:16;1.50;99.90
24802;DHT22;12898;50.520;12.152;2023-02-01T02:55:04;1.50;99.90
24802;DHT22;12898;50.520;12.152;2023-02-01T02:57:36;1.30;99.90
24802;DHT22;12898;50.520;12.152;2023-02-01T03:00:27;1.20;99.90
24802;DHT22;12898;50.520;12.152;2023-02-01T03:03:13;1.10;99.90
24802;DHT22;12898;50.520;12.152;2023-02-01T03:05:57;1.00;99.90
24802;DHT22;12898;50.520;12.152;2023-02-01T03:08:28;1.00;99.90
24802;DHT22;12898;50.520;12.152;2023-02-01T03:13:43;0.90;99.90
24802;DHT22;12898;50.520;12.152;2023-02-01T03:18:57;1.00;99.90
24802;DHT22;12898;50.520;12.152;2023-02-01T03:24:02;1.10;99.90
24802;DHT22;12898;50.520;12.152;2023-02-01T03:26:31;1.00;99.90
24802;DHT22;12898;50.520;12.152;2023-02-01T03:29:08;1.10;99.90
24802;DHT22;12898;50.520;12.152;2023-02-01T03:31:36;1.10;99.90
24802;DHT22;12898;50.520;12.152;2023-02-01T03:34:02;1.10;99.90
24802;DHT22;12898;50.520;12.152;2023-02-01T03:36:39;1.20;99.90
24802;DHT22;12898;50.520;12.152;2023-02-01T03:39:29;1.20;99.90
24802;DHT22;12898;50.520;12.152;2023-02-01T03:42:24;1.30;99.90
24802;DHT22;12898;50.520;12.152;2023-02-01T03:45:07;1.40;99.90
24802;DHT22;12898;50.520;12.152;2023-02-01T03:47:39;1.50;99.90
24802;DHT22;12898;50.520;12.152;2023-02-01T03:50:10;1.60;99.90
24802;DHT22;12898;50.520;12.152;2023-02-01T03:52:42;1.70;99.90
24802;DHT22;12898;50.520;12.152;2023-02-01T03:55:11;1.90;99.90
24802;DHT22;12898;50.520;12.152;2023-02-01T03:57:44;1.90;99.90
24802;DHT22;12898;50.520;12.152;2023-02-01T04:00:16;1.90;99.90
24802;DHT22;12898;50.520;12.152;2023-02-01T04:02:44;2.00;99.90
24802;DHT22;12898;50.520;12.152;2023-02-01T04:05:09;2.00;99.90
24802;DHT22;12898;50.520;12.152;2023-02-01T04:07:35;2.00;99.90
24802;DHT22;12898;50.520;12.152;2023-02-01T04:10:01;2.00;99.90
24802;DHT22;12898;50.520;12.152;2023-02-01T04:12:28;2.00;99.90
24802;DHT22;12898;50.520;12.152;2023-02-01T04:14:54;2.10;99.90
24802;DHT22;12898;50.520;12.152;2023-02-01T04:17:20;2.10;99.90
24802;DHT22;12898;50.520;12.152;2023-02-01T04:19:46;2.10;99.90
24802;DHT22;12898;50.520;12.152;2023-02-01T04:22:11;2.00;99.90
24802;DHT22;12898;50.520;12.152;2023-02-01T04:24:38;2.00;99.90
24802;DHT22;12898;50.520;12.152;2023-02-01T04:27:04;2.00;99.90
24802;DHT22;12898;50.520;12.152;2023-02-01T04:29:29;1.90;99.90
24802;DHT22;12898;50.520;12.152;2023-02-01T04:31:55;1.90;99.90
24802;DHT22;12898;50.520;12.152;2023-02-01T04:34:21;1.90;99.90
24802;DHT22;12898;50.520;12.152;2023-02-01T04:36:48;1.90;99.90
24802;DHT22;12898;50.520;12.152;2023-02-01T04:39:14;1.90;99.90
24802;DHT22;12898;50.520;12.152;2023-02-01T04:41:39;2.00;99.90
24802;DHT22;12898;50.520;12.152;2023-02-01T04:44:05;2.00;99.90
24802;DHT22;12898;50.520;12.152;2023-02-01T04:46:31;2.00;99.90
24802;DHT22;12898;50.520;12.152;2023-02-01T04:48:56;1.90;99.90
24802;DHT22;12898;50.520;12.152;2023-02-01T04:51:22;1.90;99.90
24802;DHT22;12898;50.520;12.152;2023-02-01T04:53:48;1.90;99.90
24802;DHT22;12898;50.520;12.152;2023-02-01T04:56:13;1.90;99.90
24802;DHT22;12898;50.520;12.152;2023-02-01T04:58:39;1.90;99.90
24802;DHT22;12898;50.520;12.152;2023-02-01T05:01:06;1.90;99.90
24802;DHT22;12898;50.520;12.152;2023-02-01T05:03:33;1.90;99.90
24802;DHT22;12898;50.520;12.152;2023-02-01T05:06:00;1.90;99.90
24802;DHT22;12898;50.520;12.152;2023-02-01T05:08:26;1.90;99.90
24802;DHT22;12898;50.520;12.152;2023-02-01T05:10:52;1.90;99.90
24802;DHT22;12898;50.520;12.152;2023-02-01T05:13:18;1.80;99.90
24802;DHT22;12898;50.520;12.152;2023-02-01T05:16:03;1.80;99.90
24802;DHT22;12898;50.520;12.152;2023-02-01T05:18:29;1.90;99.90
24802;DHT22;12898;50.520;12.152;2023-02-01T05:20:55;2.00;99.90
24802;DHT22;12898;50.520;12.152;2023-02-01T05:23:21;2.00;99.90
24802;DHT22;12898;50.520;12.152;2023-02-01T05:25:46;2.10;99.90
24802;DHT22;12898;50.520;12.152;2023-02-01T05:28:12;2.20;99.90
24802;DHT22;12898;50.520;12.152;2023-02-01T05:30:38;2.20;99.90
24802;DHT22;12898;50.520;12.152;2023-02-01T05:33:04;2.20;99.90
24802;DHT22;12898;50.520;12.152;2023-02-01T05:35:29;2.20;99.90
24802;DHT22;12898;50.520;12.152;2023-02-01T05:37:55;2.20;99.90
24802;DHT22;12898;50.520;12.152;2023-02-01T05:40:21;2.20;99.90
24802;DHT22;12898;50.520;12.152;2023-02-01T05:42:46;2.20;99.90
24802;DHT22;12898;50.520;12.152;2023-02-01T05:45:12;2.20;99.90
24802;DHT22;12898;50.520;12.152;2023-02-01T05:47:38;2.20;99.90
24802;DHT22;12898;50.520;12.152;2023-02-01T05:50:04;2.20;99.90
24802;DHT22;12898;50.520;12.152;2023-02-01T05:52:31;2.30;99.90
24802;DHT22;12898;50.520;12.152;2023-02-01T05:54:57;2.30;99.90
24802;DHT22;12898;50.520;12.152;2023-02-01T05:57:23;2.30;99.90
24802;DHT22;12898;50.520;12.152;2023-02-01T05:59:48;2.30;99.90
24802;DHT22;12898;50.520;12.152;2023-02-01T06:02:15;2.30;99.90
24802;DHT22;12898;50.520;12.152;2023-02-01T06:04:41;2.30;99.90
24802;DHT22;12898;50.520;12.152;2023-02-01T06:07:08;2.30;99.90
24802;DHT22;12898;50.520;12.152;2023-02-01T06:09:35;2.30;99.90
24802;DHT22;12898;50.520;12.152;2023-02-01T06:12:02;2.30;99.90
24802;DHT22;12898;50.520;12.152;2023-02-01T06:14:28;2.30;99.90
24802;DHT22;12898;50.520;12.152;2023-02-01T06:16:54;2.30;99.90
24802;DHT22;12898;50.520;12.152;2023-02-01T06:19:21;2.30;99.90
24802;DHT22;12898;50.520;12.152;2023-02-01T06:21:47;2.30;99.90
24802;DHT22;12898;50.520;12.152;2023-02-01T06:24:13;2.30;99.90
24802;DHT22;12898;50.520;12.152;2023-02-01T06:26:39;2.30;99.90
24802;DHT22;12898;50.520;12.152;2023-02-01T06:29:06;2.30;99.90
24802;DHT22;12898;50.520;12.152;2023-02-01T06:31:32;2.20;99.90
24802;DHT22;12898;50.520;12.152;2023-02-01T06:33:59;2.30;99.90
24802;DHT22;12898;50.520;12.152;2023-02-01T06:36:24;2.20;99.90
24802;DHT22;12898;50.520;12.152;2023-02-01T06:38:50;2.20;99.90
24802;DHT22;12898;50.520;12.152;2023-02-01T06:41:16;2.30;99.90
24802;DHT22;12898;50.520;12.152;2023-02-01T06:43:41;2.40;99.90
24802;DHT22;12898;50.520;12.152;2023-02-01T06:46:10;2.40;99.90
24802;DHT22;12898;50.520;12.152;2023-02-01T06:48:37;2.40;99.90
24802;DHT22;12898;50.520;12.152;2023-02-01T06:51:02;2.40;99.90
24802;DHT22;12898;50.520;12.152;2023-02-01T06:53:29;2.50;99.90
24802;DHT22;12898;50.520;12.152;2023-02-01T06:56:02;2.40;99.90
24802;DHT22;12898;50.520;12.152;2023-02-01T06:58:32;2.40;99.90
24802;DHT22;12898;50.520;12.152;2023-02-01T07:01:04;2.40;99.90
24802;DHT22;12898;50.520;12.152;2023-02-01T07:03:30;2.40;99.90
24802;DHT22;12898;50.520;12.152;2023-02-01T07:05:57;2.40;99.90
24802;DHT22;12898;50.520;12.152;2023-02-01T07:08:33;2.30;99.90
24802;DHT22;12898;50.520;12.152;2023-02-01T07:11:09;2.30;99.90
24802;DHT22;12898;50.520;12.152;2023-02-01T07:13:36;2.30;99.90
24802;DHT22;12898;50.520;12.152;2023-02-01T07:16:04;2.30;99.90
24802;DHT22;12898;50.520;12.152;2023-02-01T07:18:32;2.30;99.90
24802;DHT22;12898;50.520;12.152;2023-02-01T07:20:58;2.30;99.90
24802;DHT22;12898;50.520;12.152;2023-02-01T07:23:25;2.30;99.90
24802;DHT22;12898;50.520;12.152;2023-02-01T07:25:55;2.30;99.90
24802;DHT22;12898;50.520;12.152;2023-02-01T07:28:23;2.40;99.90
24802;DHT22;12898;50.520;12.152;2023-02-01T07:30:49;2.40;99.90
24802;DHT22;12898;50.520;12.152;2023-02-01T07:33:21;2.40;99.90
24802;DHT22;12898;50.520;12.152;2023-02-01T07:35:48;2.50;99.90
24802;DHT22;12898;50.520;12.152;2023-02-01T07:38:14;2.50;99.90
24802;DHT22;12898;50.520;12.152;2023-02-01T07:40:41;2.60;99.90
24802;DHT22;12898;50.520;12.152;2023-02-01T07:43:07;2.60;99.90
24802;DHT22;12898;50.520;12.152;2023-02-01T07:45:34;2.70;99.90
24802;DHT22;12898;50.520;12.152;2023-02-01T07:48:00;2.80;99.90
24802;DHT22;12898;50.520;12.152;2023-02-01T07:50:26;2.80;99.90
24802;DHT22;12898;50.520;12.152;2023-02-01T07:52:51;2.90;99.90
24802;DHT22;12898;50.520;12.152;2023-02-01T07:55:21;2.90;99.90
24802;DHT22;12898;50.520;12.152;2023-02-01T07:57:47;3.00;99.90
24802;DHT22;12898;50.520;12.152;2023-02-01T08:00:13;3.00;99.90
24802;DHT22;12898;50.520;12.152;2023-02-01T08:02:59;3.00;99.90
24802;DHT22;12898;50.520;12.152;2023-02-01T08:05:25;3.10;99.90
24802;DHT22;12898;50.520;12.152;2023-02-01T08:07:51;3.20;99.90
24802;DHT22;12898;50.520;12.152;2023-02-01T08:10:17;3.20;99.90
24802;DHT22;12898;50.520;12.152;2023-02-01T08:12:44;3.30;99.90
24802;DHT22;12898;50.520;12.152;2023-02-01T08:15:14;3.40;99.90
24802;DHT22;12898;50.520;12.152;2023-02-01T08:17:48;3.60;99.90
24802;DHT22;12898;50.520;12.152;2023-02-01T08:20:18;3.70;99.90
24802;DHT22;12898;50.520;12.152;2023-02-01T08:22:44;3.70;99.90
24802;DHT22;12898;50.520;12.152;2023-02-01T08:25:10;3.80;99.90
24802;DHT22;12898;50.520;12.152;2023-02-01T08:27:37;3.80;99.90
24802;DHT22;12898;50.520;12.152;2023-02-01T08:30:03;3.70;99.90
24802;DHT22;12898;50.520;12.152;2023-02-01T08:32:30;3.60;99.90
24802;DHT22;12898;50.520;12.152;2023-02-01T08:34:56;3.60;99.90
24802;DHT22;12898;50.520;12.152;2023-02-01T08:37:21;3.60;99.90
24802;DHT22;12898;50.520;12.152;2023-02-01T08:39:47;3.60;99.90
24802;DHT22;12898;50.520;12.152;2023-02-01T08:42:15;3.60;99.90
24802;DHT22;12898;50.520;12.152;2023-02-01T08:44:59;3.50;99.90
24802;DHT22;12898;50.520;12.152;2023-02-01T08:47:25;3.50;99.90
24802;DHT22;12898;50.520;12.152;2023-02-01T08:49:51;3.50;99.90
24802;DHT22;12898;50.520;12.152;2023-02-01T08:52:17;3.50;99.90
24802;DHT22;12898;50.520;12.152;2023-02-01T08:54:42;3.50;99.90
24802;DHT22;12898;50.520;12.152;2023-02-01T08:57:08;3.50;99.90
24802;DHT22;12898;50.520;12.152;2023-02-01T08:59:34;3.60;99.90
24802;DHT22;12898;50.520;12.152;2023-02-01T09:02:00;3.60;99.90
24802;DHT22;12898;50.520;12.152;2023-02-01T09:04:26;3.70;99.90
24802;DHT22;12898;50.520;12.152;2023-02-01T09:06:52;3.60;99.90
24802;DHT22;12898;50.520;12.152;2023-02-01T09:09:21;3.60;99.90
24802;DHT22;12898;50.520;12.152;2023-02-01T09:11:47;3.60;99.90
24802;DHT22;12898;50.520;12.152;2023-02-01T09:14:14;3.50;99.90
24802;DHT22;12898;50.520;12.152;2023-02-01T09:16:40;3.50;99.90
24802;DHT22;12898;50.520;12.152;2023-02-01T09:19:06;3.50;99.90
24802;DHT22;12898;50.520;12.152;2023-02-01T09:21:31;3.60;99.90
24802;DHT22;12898;50.520;12.152;2023-02-01T09:23:57;3.60;99.90
24802;DHT22;12898;50.520;12.152;2023-02-01T09:26:23;3.60;99.90
24802;DHT22;12898;50.520;12.152;2023-02-01T09:28:48;3.60;99.90
24802;DHT22;12898;50.520;12.152;2023-02-01T09:31:14;3.70;99.90
24802;DHT22;12898;50.520;12.152;2023-02-01T09:33:40;3.70;99.90
24802;DHT22;12898;50.520;12.152;2023-02-01T09:36:06;3.70;99.90
24802;DHT22;12898;50.520;12.152;2023-02-01T09:38:32;3.60;99.90
24802;DHT22;12898;50.520;12.152;2023-02-01T09:40:58;3.70;99.90
24802;DHT22;12898;50.520;12.152;2023-02-01T09:43:44;3.70;99.90
24802;DHT22;12898;50.520;12.152;2023-02-01T09:46:24;3.80;99.90
24802;DHT22;12898;50.520;12.152;2023-02-01T09:48:58;3.90;99.90
24802;DHT22;12898;50.520;12.152;2023-02-01T09:51:34;4.00;99.90
24802;DHT22;12898;50.520;12.152;2023-02-01T09:54:08;4.10;99.90
24802;DHT22;12898;50.520;12.152;2023-02-01T09:59:46;4.10;99.90
24802;DHT22;12898;50.520;12.152;2023-02-01T10:02:23;4.20;99.90
24802;DHT22;12898;50.520;12.152;2023-02-01T10:04:57;4.20;99.90
24802;DHT22;12898;50.520;12.152;2023-02-01T10:07:47;4.30;99.90
24802;DHT22;12898;50.520;12.152;2023-02-01T10:13:22;4.40;99.90
24802;DHT22;12898;50.520;12.152;2023-02-01T10:18:51;4.40;99.90
24802;DHT22;12898;50.520;12.152;2023-02-01T10:21:40;4.40;99.90
24802;DHT22;12898;50.520;12.152;2023-02-01T10:27:15;4.70;99.90
24802;DHT22;12898;50.520;12.152;2023-02-01T10:29:54;4.80;99.90
24802;DHT22;12898;50.520;12.152;2023-02-01T10:32:24;4.80;99.90
24802;DHT22;12898;50.520;12.152;2023-02-01T10:34:59;4.90;99.90
24802;DHT22;12898;50.520;12.152;2023-02-01T10:37:34;4.90;99.90
24802;DHT22;12898;50.520;12.152;2023-02-01T10:40:19;4.90;99.90
24802;DHT22;12898;50.520;12.152;2023-02-01T10:42:48;5.00;99.90
24802;DHT22;12898;50.520;12.152;2023-02-01T10:45:19;5.00;99.90
24802;DHT22;12898;50.520;12.152;2023-02-01T10:47:48;4.90;99.90
24802;DHT22;12898;50.520;12.152;2023-02-01T10:53:23;4.90;99.90
24802;DHT22;12898;50.520;12.152;2023-02-01T10:55:52;5.10;99.90
24802;DHT22;12898;50.520;12.152;2023-02-01T10:58:30;5.20;99.90
24802;DHT22;12898;50.520;12.152;2023-02-01T11:01:00;5.30;99.90
24802;DHT22;12898;50.520;12.152;2023-02-01T11:08:57;5.20;99.90
24802;DHT22;12898;50.520;12.152;2023-02-01T11:11:25;5.10;99.90
24802;DHT22;12898;50.520;12.152;2023-02-01T11:13:59;5.10;99.90
24802;DHT22;12898;50.520;12.152;2023-02-01T11:16:38;5.10;99.90
24802;DHT22;12898;50.520;12.152;2023-02-01T11:19:05;5.20;99.90
24802;DHT22;12898;50.520;12.152;2023-02-01T11:21:32;5.40;99.90
24802;DHT22;12898;50.520;12.152;2023-02-01T11:24:05;5.50;99.90
24802;DHT22;12898;50.520;12.152;2023-02-01T11:26:40;5.50;99.90
24802;DHT22;12898;50.520;12.152;2023-02-01T11:29:12;5.40;99.90
24802;DHT22;12898;50.520;12.152;2023-02-01T11:31:42;5.30;99.90
24802;DHT22;12898;50.520;12.152;2023-02-01T11:34:16;5.20;99.90
24802;DHT22;12898;50.520;12.152;2023-02-01T11:36:45;5.20;99.90
24802;DHT22;12898;50.520;12.152;2023-02-01T11:41:59;5.10;99.90
24802;DHT22;12898;50.520;12.152;2023-02-01T11:44:34;5.10;99.90
24802;DHT22;12898;50.520;12.152;2023-02-01T11:49:50;5.00;99.90
24802;DHT22;12898;50.520;12.152;2023-02-01T11:58:06;5.00;99.90
24802;DHT22;12898;50.520;12.152;2023-02-01T12:00:59;5.00;99.90
24802;DHT22;12898;50.520;12.152;2023-02-01T12:06:50;4.90;99.90
24802;DHT22;12898;50.520;12.152;2023-02-01T12:27:27;4.90;99.90
24802;DHT22;12898;50.520;12.152;2023-02-01T12:36:46;4.90;99.90
24802;DHT22;12898;50.520;12.152;2023-02-01T12:42:14;4.90;99.90
24802;DHT22;12898;50.520;12.152;2023-02-01T12:44:45;5.00;99.90
24802;DHT22;12898;50.520;12.152;2023-02-01T12:47:24;4.90;99.90
24802;DHT22;12898;50.520;12.152;2023-02-01T12:50:24;4.90;99.90
24802;DHT22;12898;50.520;12.152;2023-02-01T12:53:12;4.90;99.90
24802;DHT22;12898;50.520;12.152;2023-02-01T12:55:52;4.80;99.90
24802;DHT22;12898;50.520;12.152;2023-02-01T12:58:42;4.80;99.90
24802;DHT22;12898;50.520;12.152;2023-02-01T13:06:53;4.80;99.90
24802;DHT22;12898;50.520;12.152;2023-02-01T13:12:36;4.80;99.90
24802;DHT22;12898;50.520;12.152;2023-02-01T13:15:27;4.80;99.90
24802;DHT22;12898;50.520;12.152;2023-02-01T13:17:59;4.90;99.90
24802;DHT22;12898;50.520;12.152;2023-02-01T13:20:42;4.90;99.90
24802;DHT22;12898;50.520;12.152;2023-02-01T13:23:31;4.90;99.90
24802;DHT22;12898;50.520;12.152;2023-02-01T13:25:59;4.90;99.90
24802;DHT22;12898;50.520;12.152;2023-02-01T13:28:44;4.80;99.90
24802;DHT22;12898;50.520;12.152;2023-02-01T13:37:02;4.50;99.90
24802;DHT22;12898;50.520;12.152;2023-02-01T13:42:22;4.30;99.90
24802;DHT22;12898;50.520;12.152;2023-02-01T13:44:56;4.30;99.90
24802;DHT22;12898;50.520;12.152;2023-02-01T13:47:32;4.20;99.90
24802;DHT22;12898;50.520;12.152;2023-02-01T13:50:27;4.30;99.90
24802;DHT22;12898;50.520;12.152;2023-02-01T13:53:29;4.20;99.90
24802;DHT22;12898;50.520;12.152;2023-02-01T13:56:01;4.20;99.90
24802;DHT22;12898;50.520;12.152;2023-02-01T13:58:37;4.20;99.90
24802;DHT22;12898;50.520;12.152;2023-02-01T14:03:49;4.10;99.90
24802;DHT22;12898;50.520;12.152;2023-02-01T14:09:15;4.20;99.90
24802;DHT22;12898;50.520;12.152;2023-02-01T14:11:53;4.10;99.90
24802;DHT22;12898;50.520;12.152;2023-02-01T14:14:38;4.10;99.90
24802;DHT22;12898;50.520;12.152;2023-02-01T14:19:37;4.10;99.90
24802;DHT22;12898;50.520;12.152;2023-02-01T14:24:56;4.20;99.90
24802;DHT22;12898;50.520;12.152;2023-02-01T14:27:28;4.20;99.90
24802;DHT22;12898;50.520;12.152;2023-02-01T14:30:01;4.20;99.90
24802;DHT22;12898;50.520;12.152;2023-02-01T14:32:40;4.20;99.90
24802;DHT22;12898;50.520;12.152;2023-02-01T14:35:17;4.30;99.90
24802;DHT22;12898;50.520;12.152;2023-02-01T14:37:45;4.20;99.90
24802;DHT22;12898;50.520;12.152;2023-02-01T14:42:44;4.20;99.90
24802;DHT22;12898;50.520;12.152;2023-02-01T14:53:19;4.30;99.90
24802;DHT22;12898;50.520;12.152;2023-02-01T14:55:53;4.30;99.90
24802;DHT22;12898;50.520;12.152;2023-02-01T15:01:36;4.30;99.90
24802;DHT22;12898;50.520;12.152;2023-02-01T15:04:13;4.30;99.90
24802;DHT22;12898;50.520;12.152;2023-02-01T15:06:52;4.30;99.90
24802;DHT22;12898;50.520;12.152;2023-02-01T15:09:42;4.30;99.90
24802;DHT22;12898;50.520;12.152;2023-02-01T15:14:42;4.30;99.90
24802;DHT22;12898;50.520;12.152;2023-02-01T15:17:23;4.30;99.90
24802;DHT22;12898;50.520;12.152;2023-02-01T15:19:57;4.20;99.90
24802;DHT22;12898;50.520;12.152;2023-02-01T15:22:25;4.10;99.90
24802;DHT22;12898;50.520;12.152;2023-02-01T15:24:53;4.10;99.90
24802;DHT22;12898;50.520;12.152;2023-02-01T15:27:19;4.10;99.90
24802;DHT22;12898;50.520;12.152;2023-02-01T15:29:45;4.10;99.90
24802;DHT22;12898;50.520;12.152;2023-02-01T15:32:31;4.10;99.90
24802;DHT22;12898;50.520;12.152;2023-02-01T15:34:59;4.10;99.90
24802;DHT22;12898;50.520;12.152;2023-02-01T15:37:27;4.00;99.90
24802;DHT22;12898;50.520;12.152;2023-02-01T15:40:23;4.00;99.90
24802;DHT22;12898;50.520;12.152;2023-02-01T15:42:54;4.00;99.90
24802;DHT22;12898;50.520;12.152;2023-02-01T15:45:29;4.00;99.90
24802;DHT22;12898;50.520;12.152;2023-02-01T15:47:58;4.00;99.90
24802;DHT22;12898;50.520;12.152;2023-02-01T15:50:25;3.90;99.90
24802;DHT22;12898;50.520;12.152;2023-02-01T15:52:53;3.90;99.90
24802;DHT22;12898;50.520;12.152;2023-02-01T15:58:13;3.90;99.90
24802;DHT22;12898;50.520;12.152;2023-02-01T16:00:56;3.90;99.90
24802;DHT22;12898;50.520;12.152;2023-02-01T16:03:32;3.90;99.90
24802;DHT22;12898;50.520;12.152;2023-02-01T16:06:11;3.90;99.90
24802;DHT22;12898;50.520;12.152;2023-02-01T16:08:52;3.90;99.90
24802;DHT22;12898;50.520;12.152;2023-02-01T16:11:24;3.90;99.90
24802;DHT22;12898;50.520;12.152;2023-02-01T16:13:53;3.90;99.90
24802;DHT22;12898;50.520;12.152;2023-02-01T16:16:19;3.80;99.90
24802;DHT22;12898;50.520;12.152;2023-02-01T16:18:44;3.80;99.90
24802;DHT22;12898;50.520;12.152;2023-02-01T16:21:10;3.80;99.90
24802;DHT22;12898;50.520;12.152;2023-02-01T16:23:37;3.80;99.90
24802;DHT22;12898;50.520;12.152;2023-02-01T16:26:03;3.80;99.90
24802;DHT22;12898;50.520;12.152;2023-02-01T16:28:31;3.80;99.90
24802;DHT22;12898;50.520;12.152;2023-02-01T16:30:57;3.80;99.90
24802;DHT22;12898;50.520;12.152;2023-02-01T16:33:23;3.70;99.90
24802;DHT22;12898;50.520;12.152;2023-02-01T16:35:51;3.70;99.90
24802;DHT22;12898;50.520;12.152;2023-02-01T16:38:19;3.70;99.90
24802;DHT22;12898;50.520;12.152;2023-02-01T16:40:48;3.80;99.90
24802;DHT22;12898;50.520;12.152;2023-02-01T16:43:24;3.70;99.90
24802;DHT22;12898;50.520;12.152;2023-02-01T16:45:54;3.80;99.90
24802;DHT22;12898;50.520;12.152;2023-02-01T16:48:28;3.80;99.90
24802;DHT22;12898;50.520;12.152;2023-02-01T16:51:02;3.80;99.90
24802;DHT22;12898;50.520;12.152;2023-02-01T16:53:38;3.80;99.90
24802;DHT22;12898;50.520;12.152;2023-02-01T16:56:18;3.70;99.90
24802;DHT22;12898;50.520;12.152;2023-02-01T16:58:45;3.80;99.90
24802;DHT22;12898;50.520;12.152;2023-02-01T17:01:13;3.80;99.90
24802;DHT22;12898;50.520;12.152;2023-02-01T17:03:41;3.80;99.90
24802;DHT22;12898;50.520;12.152;2023-02-01T17:06:12;3.80;99.90
24802;DHT22;12898;50.520;12.152;2023-02-01T17:08:42;3.80;99.90
24802;DHT22;12898;50.520;12.152;2023-02-01T17:11:11;3.80;99.90
24802;DHT22;12898;50.520;12.152;2023-02-01T17:13:39;3.80;99.90
24802;DHT22;12898;50.520;12.152;2023-02-01T17:16:28;3.80;99.90
24802;DHT22;12898;50.520;12.152;2023-02-01T17:19:05;3.80;99.90
24802;DHT22;12898;50.520;12.152;2023-02-01T17:21:41;3.80;99.90
24802;DHT22;12898;50.520;12.152;2023-02-01T17:24:13;3.80;99.90
24802;DHT22;12898;50.520;12.152;2023-02-01T17:26:41;3.80;99.90
24802;DHT22;12898;50.520;12.152;2023-02-01T17:29:07;3.80;99.90
24802;DHT22;12898;50.520;12.152;2023-02-01T17:31:37;3.70;99.90
24802;DHT22;12898;50.520;12.152;2023-02-01T17:34:04;3.60;99.90
24802;DHT22;12898;50.520;12.152;2023-02-01T17:36:30;3.60;99.90
24802;DHT22;12898;50.520;12.152;2023-02-01T17:38:56;3.50;99.90
24802;DHT22;12898;50.520;12.152;2023-02-01T17:41:21;3.50;99.90
24802;DHT22;12898;50.520;12.152;2023-02-01T17:43:48;3.40;99.90
24802;DHT22;12898;50.520;12.152;2023-02-01T17:46:16;3.40;99.90
24802;DHT22;12898;50.520;12.152;2023-02-01T17:48:50;3.40;99.90
24802;DHT22;12898;50.520;12.152;2023-02-01T17:51:17;3.30;99.90
24802;DHT22;12898;50.520;12.152;2023-02-01T17:53:47;3.30;99.90
24802;DHT22;12898;50.520;12.152;2023-02-01T17:56:18;3.30;99.90
24802;DHT22;12898;50.520;12.152;2023-02-01T17:58:46;3.30;99.90
24802;DHT22;12898;50.520;12.152;2023-02-01T18:01:18;3.30;99.90
24802;DHT22;12898;50.520;12.152;2023-02-01T18:03:45;3.20;99.90
24802;DHT22;12898;50.520;12.152;2023-02-01T18:06:31;3.10;99.90
24802;DHT22;12898;50.520;12.152;2023-02-01T18:08:58;2.80;99.90
24802;DHT22;12898;50.520;12.152;2023-02-01T18:11:24;2.50;99.90
24802;DHT22;12898;50.520;12.152;2023-02-01T18:13:52;2.20;99.90
24802;DHT22;12898;50.520;12.152;2023-02-01T18:16:23;1.90;99.90